createdAt,value
2023-04-29T20:09:44.015Z,21.23
2023-04-29T20:12:10.910Z,9.27
2023-04-29T20:14:37.874Z,14.73
2023-04-29T20:17:04.733Z,17.38
2023-04-29T20:19:32.972Z,13.40
2023-04-29T20:21:59.836Z,11.48
2023-04-29T20:24:26.711Z,14.90
2023-04-29T20:26:53.579Z,10.25
2023-04-29T20:29:20.442Z,8.32
2023-04-29T20:31:47.414Z,17.52
2023-04-29T20:34:14.345Z,13.40
2023-04-29T20:36:42.603Z,14.35
2023-04-29T20:39:09.472Z,15.75
2023-04-29T20:41:37.579Z,14.75
2023-04-29T20:44:04.493Z,9.80
2023-04-29T20:46:31.566Z,8.38
2023-04-29T20:48:58.560Z,9.05
2023-04-29T20:51:25.484Z,16.80
2023-04-29T20:53:53.694Z,7.63
2023-04-29T20:56:20.575Z,7.30
2023-04-29T20:58:47.461Z,8.45
2023-04-29T21:01:14.352Z,9.48
2023-04-29T21:03:41.244Z,8.38
2023-04-29T21:06:08.181Z,11.77
2023-04-29T21:08:35.066Z,9.85
2023-04-29T21:11:03.498Z,8.13
2023-04-29T21:13:30.359Z,9.70
2023-04-29T21:15:57.282Z,7.35
2023-04-29T21:18:24.252Z,5.50
2023-04-29T21:20:51.119Z,3.78
2023-04-29T21:23:17.962Z,6.22
2023-04-29T21:25:44.814Z,7.28
2023-04-29T21:28:14.336Z,8.55
2023-04-29T21:30:42.335Z,7.97
2023-04-29T21:33:09.230Z,6.95
2023-04-29T21:35:36.132Z,8.80
2023-04-29T21:38:03.021Z,9.18
2023-04-29T21:40:29.973Z,6.63
2023-04-29T21:42:57.089Z,7.15
2023-04-29T21:45:25.304Z,11.15
2023-04-29T21:47:52.246Z,7.90
2023-04-29T21:50:19.252Z,5.63
2023-04-29T21:52:46.130Z,4.30
2023-04-29T21:55:12.996Z,3.60
2023-04-29T21:57:44.072Z,4.40
2023-04-29T22:00:12.882Z,4.28
2023-04-29T22:02:41.175Z,4.50
2023-04-29T22:05:08.254Z,4.53
2023-04-29T22:07:35.171Z,4.05
2023-04-29T22:10:02.229Z,7.65
2023-04-29T22:12:29.077Z,5.93
2023-04-29T22:14:55.962Z,3.67
2023-04-29T22:17:22.919Z,5.00
2023-04-29T22:19:51.276Z,3.63
2023-04-29T22:22:18.277Z,4.20
2023-04-29T22:24:45.189Z,4.35
2023-04-29T22:27:12.065Z,7.43
2023-04-29T22:29:38.921Z,4.07
2023-04-29T22:32:05.975Z,5.30
2023-04-29T22:34:32.823Z,4.93
2023-04-29T22:37:01.061Z,5.13
2023-04-29T22:39:27.914Z,4.93
2023-04-29T22:41:54.763Z,2.75
2023-04-29T22:44:21.628Z,4.65
2023-04-29T22:46:48.505Z,4.25
2023-04-29T22:49:15.364Z,4.85
2023-04-29T22:51:42.269Z,3.20
2023-04-29T22:54:10.498Z,2.92
2023-04-29T22:56:37.362Z,3.22
2023-04-29T22:59:04.237Z,2.92
2023-04-29T23:01:31.117Z,3.42
2023-04-29T23:03:58.005Z,2.22
2023-04-29T23:06:24.973Z,1.67
2023-04-29T23:08:52.668Z,2.67
2023-04-29T23:11:20.906Z,3.25
2023-04-29T23:13:47.762Z,2.42
2023-04-29T23:16:14.694Z,4.22
2023-04-29T23:18:41.602Z,2.22
2023-04-29T23:21:08.437Z,4.30
2023-04-29T23:23:35.307Z,3.85
2023-04-29T23:26:02.158Z,4.25
2023-04-29T23:28:30.393Z,2.95
2023-04-29T23:30:57.277Z,3.13
2023-04-29T23:33:24.163Z,3.15
2023-04-29T23:35:51.156Z,7.47
2023-04-29T23:38:18.057Z,1.98
2023-04-29T23:40:44.984Z,2.92
2023-04-29T23:43:11.856Z,3.00
2023-04-29T23:45:40.133Z,3.40
2023-04-29T23:48:07.102Z,3.15
2023-04-29T23:50:34.020Z,5.15
2023-04-29T23:53:00.880Z,4.90
2023-04-29T23:55:27.735Z,3.63
2023-04-29T23:57:54.587Z,4.13
